Time;durP1;ratioP1;P1;durP2;ratioP2;P2;SDS_P1;SDS_P2;PMS_P1;PMS_P2;Temp;Humidity;BMP_temperature;BMP_pressure;BME280_temperature;BME280_humidity;BME280_pressure;Samples;Min_cycle;Max_cycle;Signal;HPM_P1;HPM_P2
2020/12/18 00:01:50;;;;;;;19.58;8.88;;;;;;;;;;5044788;28;20067;-76
2020/12/18 00:04:35;;;;;;;12.43;7.78;;;;;;;;;;5046291;28;20191;-76
2020/12/18 00:07:22;;;;;;;15.07;8.50;;;;;;;;;;5039483;28;20028;-77
2020/12/18 00:10:07;;;;;;;11.38;7.13;;;;;;;;;;5042400;28;20044;-77
2020/12/18 00:12:53;;;;;;;16.15;8.90;;;;;;;;;;5044011;28;20489;-77
2020/12/18 00:15:38;;;;;;;17.05;9.52;;;;;;;;;;5051843;28;20025;-77
2020/12/18 00:18:24;;;;;;;14.88;8.32;;;;;;;;;;5046400;28;20108;-78
2020/12/18 00:21:09;;;;;;;12.45;7.88;;;;;;;;;;5041290;28;20120;-77
2020/12/18 00:23:54;;;;;;;17.38;10.75;;;;;;;;;;5036111;28;20029;-78
2020/12/18 00:26:39;;;;;;;21.65;9.95;;;;;;;;;;5047387;28;20029;-79
2020/12/18 00:29:25;;;;;;;13.82;9.02;;;;;;;;;;5045393;28;20058;-76
2020/12/18 00:32:10;;;;;;;16.55;8.52;;;;;;;;;;5047573;28;20330;-75
2020/12/18 00:34:55;;;;;;;16.98;8.48;;;;;;;;;;5040811;28;20029;-76
2020/12/18 00:37:40;;;;;;;15.80;8.23;;;;;;;;;;5042352;28;20435;-76
2020/12/18 00:40:25;;;;;;;14.73;8.98;;;;;;;;;;5043559;28;20029;-75
2020/12/18 00:43:11;;;;;;;15.35;8.02;;;;;;;;;;5046465;28;20035;-76
2020/12/18 00:45:56;;;;;;;14.85;9.23;;;;;;;;;;5047549;28;20036;-77
2020/12/18 00:48:41;;;;;;;15.40;8.02;;;;;;;;;;5042980;28;20028;-77
2020/12/18 00:51:27;;;;;;;14.20;8.77;;;;;;;;;;5045532;28;20044;-78
2020/12/18 00:54:13;;;;;;;14.93;8.18;;;;;;;;;;5046945;28;20292;-77
2020/12/18 00:56:58;;;;;;;15.70;9.55;;;;;;;;;;5050409;28;20043;-76
2020/12/18 00:59:43;;;;;;;15.57;7.57;;;;;;;;;;5040996;28;20075;-77
2020/12/18 01:02:28;;;;;;;16.98;9.63;;;;;;;;;;5038598;28;20037;-77
2020/12/18 01:05:14;;;;;;;14.25;8.68;;;;;;;;;;5049762;28;20059;-77
2020/12/18 01:07:59;;;;;;;18.95;10.80;;;;;;;;;;5044766;28;20474;-76
2020/12/18 01:10:44;;;;;;;19.00;10.15;;;;;;;;;;5050577;28;20106;-76
2020/12/18 01:13:30;;;;;;;19.00;9.75;;;;;;;;;;5045441;28;20520;-76
2020/12/18 01:16:15;;;;;;;12.75;7.82;;;;;;;;;;5048530;28;20039;-77
2020/12/18 01:19:00;;;;;;;18.85;9.77;;;;;;;;;;5046371;28;20750;-76
2020/12/18 01:21:46;;;;;;;16.35;10.60;;;;;;;;;;5039162;28;20035;-76
2020/12/18 01:24:31;;;;;;;14.40;9.80;;;;;;;;;;5039780;28;20031;-77
2020/12/18 01:27:16;;;;;;;15.38;8.30;;;;;;;;;;5049056;28;20029;-77
2020/12/18 01:30:02;;;;;;;16.95;9.40;;;;;;;;;;5043438;28;20020;-77
2020/12/18 01:32:47;;;;;;;13.50;9.23;;;;;;;;;;5047163;28;20064;-76
2020/12/18 01:35:33;;;;;;;13.27;8.55;;;;;;;;;;5034055;28;20039;-78
2020/12/18 01:38:18;;;;;;;12.80;7.85;;;;;;;;;;5046488;28;20025;-78
2020/12/18 01:41:03;;;;;;;13.73;8.20;;;;;;;;;;5044582;28;20029;-76
2020/12/18 01:43:48;;;;;;;14.95;9.07;;;;;;;;;;5050037;28;20019;-77
2020/12/18 01:46:35;;;;;;;13.95;9.38;;;;;;;;;;5047011;28;20035;-77
2020/12/18 01:49:20;;;;;;;13.40;8.80;;;;;;;;;;5052579;28;20025;-77
2020/12/18 01:52:05;;;;;;;19.77;9.23;;;;;;;;;;5044090;28;20082;-77
2020/12/18 01:54:55;;;;;;;14.13;9.30;;;;;;;;;;5053197;28;20040;-76
2020/12/18 01:57:40;;;;;;;15.73;9.15;;;;;;;;;;5046715;28;20701;-77
2020/12/18 02:00:26;;;;;;;14.05;7.90;;;;;;;;;;5048663;28;20048;-76
2020/12/18 02:03:12;;;;;;;13.38;8.73;;;;;;;;;;5044970;28;20025;-77
2020/12/18 02:05:58;;;;;;;14.68;8.90;;;;;;;;;;5048601;28;20048;-76
2020/12/18 02:08:44;;;;;;;14.75;8.98;;;;;;;;;;5049234;28;20071;-76
2020/12/18 02:11:29;;;;;;;12.35;8.27;;;;;;;;;;5046121;28;20048;-76
2020/12/18 02:14:14;;;;;;;20.02;7.55;;;;;;;;;;5039340;28;20085;-77
2020/12/18 02:16:59;;;;;;;13.35;8.45;;;;;;;;;;5044371;28;20636;-78
2020/12/18 02:19:50;;;;;;;12.60;8.15;;;;;;;;;;5047760;28;20033;-77
2020/12/18 02:22:35;;;;;;;12.93;8.65;;;;;;;;;;5043157;28;20109;-77
2020/12/18 02:25:21;;;;;;;13.98;8.20;;;;;;;;;;5053519;28;20479;-76
2020/12/18 02:28:11;;;;;;;12.13;9.07;;;;;;;;;;5052304;28;20484;-76
2020/12/18 02:30:56;;;;;;;11.27;8.10;;;;;;;;;;5047914;28;20047;-76
2020/12/18 02:33:41;;;;;;;12.45;7.60;;;;;;;;;;5040813;28;20021;-77
2020/12/18 02:36:26;;;;;;;16.15;8.73;;;;;;;;;;5045132;28;20017;-76
2020/12/18 02:39:12;;;;;;;14.25;8.82;;;;;;;;;;5051090;28;20028;-76
2020/12/18 02:41:57;;;;;;;14.75;8.65;;;;;;;;;;5053181;28;20028;-76
2020/12/18 02:44:42;;;;;;;15.43;8.68;;;;;;;;;;5045971;28;20025;-76
2020/12/18 02:47:27;;;;;;;12.15;7.90;;;;;;;;;;5052328;28;20544;-77
2020/12/18 02:50:12;;;;;;;12.38;8.60;;;;;;;;;;5048751;28;20037;-76
2020/12/18 02:53:01;;;;;;;15.10;8.20;;;;;;;;;;5048736;28;20028;-76
2020/12/18 02:55:46;;;;;;;13.30;7.10;;;;;;;;;;5051342;28;20030;-76
2020/12/18 02:58:31;;;;;;;15.07;8.80;;;;;;;;;;5051210;28;20095;-76
2020/12/18 03:01:17;;;;;;;14.73;8.50;;;;;;;;;;5045457;28;20017;-76
2020/12/18 03:04:03;;;;;;;12.48;8.13;;;;;;;;;;5037505;28;20037;-76
2020/12/18 03:06:48;;;;;;;12.57;7.63;;;;;;;;;;5049830;28;20048;-76
2020/12/18 03:09:33;;;;;;;15.73;9.38;;;;;;;;;;5048469;28;20711;-77
2020/12/18 03:12:18;;;;;;;14.43;8.85;;;;;;;;;;5052828;28;20099;-76
2020/12/18 03:15:03;;;;;;;12.32;7.82;;;;;;;;;;5047893;28;20029;-76
2020/12/18 03:17:48;;;;;;;14.15;9.35;;;;;;;;;;5047602;28;20074;-76
2020/12/18 03:20:34;;;;;;;18.73;8.50;;;;;;;;;;5040301;28;20056;-77
2020/12/18 03:23:19;;;;;;;15.15;8.98;;;;;;;;;;5044048;28;20017;-75
2020/12/18 03:26:04;;;;;;;15.00;10.00;;;;;;;;;;5041213;28;20029;-76
2020/12/18 03:28:49;;;;;;;15.45;9.02;;;;;;;;;;5049527;28;20098;-76
2020/12/18 03:31:34;;;;;;;16.02;8.82;;;;;;;;;;5047011;28;20689;-76
2020/12/18 03:34:20;;;;;;;13.93;9.38;;;;;;;;;;5047154;28;20025;-76
2020/12/18 03:37:05;;;;;;;16.27;9.90;;;;;;;;;;5043765;28;20717;-76
2020/12/18 03:39:50;;;;;;;14.70;8.73;;;;;;;;;;5048500;28;20024;-75
2020/12/18 03:42:35;;;;;;;13.98;9.27;;;;;;;;;;5048105;28;20441;-76
2020/12/18 03:45:21;;;;;;;15.13;8.77;;;;;;;;;;5038358;28;20387;-76
2020/12/18 03:48:06;;;;;;;13.32;9.23;;;;;;;;;;5044725;28;20025;-76
2020/12/18 03:50:52;;;;;;;13.57;9.57;;;;;;;;;;5045362;28;20082;-76
2020/12/18 03:53:37;;;;;;;13.52;9.23;;;;;;;;;;5046521;28;20060;-75
2020/12/18 03:56:22;;;;;;;14.82;9.90;;;;;;;;;;5049097;28;20123;-75
2020/12/18 03:59:07;;;;;;;13.98;9.82;;;;;;;;;;5047848;28;20088;-76
2020/12/18 04:01:52;;;;;;;17.15;9.10;;;;;;;;;;5049258;28;20019;-76
2020/12/18 04:04:38;;;;;;;14.18;9.38;;;;;;;;;;5047664;28;20040;-76
2020/12/18 04:07:23;;;;;;;17.25;9.23;;;;;;;;;;5034660;28;20075;-76
2020/12/18 04:10:08;;;;;;;14.52;8.35;;;;;;;;;;5043449;28;20040;-76
2020/12/18 04:12:53;;;;;;;18.90;11.60;;;;;;;;;;5045207;28;20120;-75
2020/12/18 04:15:42;;;;;;;14.23;9.82;;;;;;;;;;5045112;28;20049;-76
2020/12/18 04:18:27;;;;;;;17.27;10.70;;;;;;;;;;5055565;28;20033;-76
2020/12/18 04:21:13;;;;;;;14.45;10.55;;;;;;;;;;5041295;28;20013;-76
2020/12/18 04:23:58;;;;;;;14.00;9.27;;;;;;;;;;5044682;28;20019;-76
2020/12/18 04:26:44;;;;;;;19.15;10.23;;;;;;;;;;5049788;28;20035;-76
2020/12/18 04:29:29;;;;;;;15.88;10.40;;;;;;;;;;5049272;28;20111;-76
2020/12/18 04:32:14;;;;;;;17.98;10.88;;;;;;;;;;5044196;28;20028;-76
2020/12/18 04:34:59;;;;;;;16.58;10.95;;;;;;;;;;5048628;28;20036;-76
2020/12/18 04:37:45;;;;;;;12.73;9.23;;;;;;;;;;5042216;28;20052;-76
2020/12/18 04:40:32;;;;;;;13.15;9.20;;;;;;;;;;5036086;28;20025;-76
2020/12/18 04:43:18;;;;;;;15.38;11.05;;;;;;;;;;5045006;28;20027;-76
2020/12/18 04:46:05;;;;;;;19.52;9.13;;;;;;;;;;5032582;28;20127;-76
2020/12/18 04:48:51;;;;;;;14.07;9.43;;;;;;;;;;5042309;28;20506;-76
2020/12/18 04:51:46;;;;;;;13.93;10.02;;;;;;;;;;5046440;28;20032;-76
2020/12/18 04:54:36;;;;;;;14.93;10.15;;;;;;;;;;5041829;28;20623;-75
2020/12/18 04:57:23;;;;;;;16.63;10.68;;;;;;;;;;5030641;28;20545;-76
2020/12/18 05:00:11;;;;;;;15.25;10.00;;;;;;;;;;5046056;28;20043;-77
2020/12/18 05:02:59;;;;;;;14.55;9.18;;;;;;;;;;5050128;28;20070;-76
2020/12/18 05:05:44;;;;;;;13.38;9.10;;;;;;;;;;5040120;28;20050;-76
2020/12/18 05:08:30;;;;;;;15.23;10.57;;;;;;;;;;5038035;28;20075;-77
2020/12/18 05:11:26;;;;;;;16.65;9.82;;;;;;;;;;5043833;28;20031;-76
2020/12/18 05:14:11;;;;;;;16.08;10.68;;;;;;;;;;5045258;28;20491;-76
2020/12/18 05:17:03;;;;;;;15.27;10.70;;;;;;;;;;5049980;28;20032;-77
2020/12/18 05:19:51;;;;;;;18.02;12.00;;;;;;;;;;5044889;28;20029;-75
2020/12/18 05:22:37;;;;;;;14.95;10.07;;;;;;;;;;5046455;28;20051;-76
2020/12/18 05:25:23;;;;;;;14.13;10.40;;;;;;;;;;5041705;28;20106;-76
2020/12/18 05:28:19;;;;;;;16.35;10.43;;;;;;;;;;5046098;28;20070;-76
2020/12/18 05:31:09;;;;;;;13.48;9.63;;;;;;;;;;5042367;28;20035;-76
2020/12/18 05:33:54;;;;;;;13.27;9.38;;;;;;;;;;5049424;28;20382;-76
2020/12/18 05:36:41;;;;;;;13.85;10.48;;;;;;;;;;5041504;28;20451;-76
2020/12/18 05:39:26;;;;;;;13.85;10.68;;;;;;;;;;5046476;28;20505;-75
2020/12/18 05:42:12;;;;;;;15.00;10.07;;;;;;;;;;5044263;28;20573;-75
2020/12/18 05:45:09;;;;;;;14.02;9.73;;;;;;;;;;5042226;28;20425;-77
2020/12/18 05:47:55;;;;;;;15.23;10.55;;;;;;;;;;5051176;28;20661;-75
2020/12/18 05:50:41;;;;;;;16.52;10.35;;;;;;;;;;5045027;28;20028;-76
2020/12/18 05:53:27;;;;;;;15.35;10.85;;;;;;;;;;5042919;28;20079;-76
2020/12/18 05:56:27;;;;;;;21.27;12.07;;;;;;;;;;5045657;28;20024;-76
2020/12/18 05:59:13;;;;;;;15.40;10.35;;;;;;;;;;5046446;28;20050;-76
2020/12/18 06:02:01;;;;;;;15.23;10.30;;;;;;;;;;5047076;28;20060;-78
2020/12/18 06:04:46;;;;;;;19.50;11.98;;;;;;;;;;5047508;28;20067;-77
2020/12/18 06:07:34;;;;;;;16.45;12.13;;;;;;;;;;5043755;28;20392;-78
2020/12/18 06:10:23;;;;;;;15.07;10.45;;;;;;;;;;5045588;28;20499;-76
2020/12/18 06:13:09;;;;;;;21.23;12.32;;;;;;;;;;5047173;28;20086;-75
2020/12/18 06:15:54;;;;;;;17.48;12.43;;;;;;;;;;5046839;28;20028;-77
2020/12/18 06:18:44;;;;;;;19.48;12.25;;;;;;;;;;5050274;28;20082;-77
2020/12/18 06:21:29;;;;;;;16.85;11.30;;;;;;;;;;5040106;28;20029;-77
2020/12/18 06:24:14;;;;;;;15.05;10.48;;;;;;;;;;5047154;28;20036;-77
2020/12/18 06:26:59;;;;;;;16.05;11.30;;;;;;;;;;5042159;28;20623;-77
2020/12/18 06:29:45;;;;;;;19.15;13.38;;;;;;;;;;5048448;28;20084;-76
2020/12/18 06:32:31;;;;;;;40.45;29.98;;;;;;;;;;5045800;28;20043;-76
2020/12/18 06:35:27;;;;;;;29.42;20.30;;;;;;;;;;5048427;28;20210;-76
2020/12/18 06:38:12;;;;;;;14.63;10.02;;;;;;;;;;5053324;28;20382;-76
2020/12/18 06:40:58;;;;;;;17.75;11.50;;;;;;;;;;5045422;28;20026;-76
2020/12/18 06:43:43;;;;;;;18.02;11.65;;;;;;;;;;5043551;28;20028;-76
2020/12/18 06:46:28;;;;;;;16.48;9.30;;;;;;;;;;5049187;28;20013;-76
2020/12/18 06:49:13;;;;;;;17.35;11.30;;;;;;;;;;5050117;28;20086;-77
2020/12/18 06:51:59;;;;;;;14.65;9.55;;;;;;;;;;5047115;28;20020;-76
2020/12/18 06:54:55;;;;;;;17.02;11.25;;;;;;;;;;5047725;28;20082;-76
2020/12/18 06:57:40;;;;;;;13.52;9.45;;;;;;;;;;5040202;28;20510;-76
2020/12/18 07:00:25;;;;;;;14.98;10.80;;;;;;;;;;5041706;28;20029;-76
2020/12/18 07:03:30;;;;;;;16.95;11.00;;;;;;;;;;5043720;28;20031;-76
2020/12/18 07:06:22;;;;;;;14.55;9.63;;;;;;;;;;5048324;28;20506;-76
2020/12/18 07:09:08;;;;;;;13.82;9.73;;;;;;;;;;5049786;28;20435;-76
2020/12/18 07:11:54;;;;;;;15.50;10.23;;;;;;;;;;5046008;28;20455;-76
2020/12/18 07:14:39;;;;;;;16.25;9.85;;;;;;;;;;5045275;28;20031;-76
2020/12/18 07:17:26;;;;;;;46.88;31.95;;;;;;;;;;5054886;28;20051;-77
2020/12/18 07:20:12;;;;;;;19.65;12.13;;;;;;;;;;5039954;28;20167;-76
2020/12/18 07:22:57;;;;;;;16.30;11.70;;;;;;;;;;5049526;28;20036;-76
2020/12/18 07:25:42;;;;;;;15.82;9.70;;;;;;;;;;5032250;28;20021;-76
2020/12/18 07:28:28;;;;;;;15.23;10.60;;;;;;;;;;5045802;28;20032;-76
2020/12/18 07:31:21;;;;;;;17.60;11.43;;;;;;;;;;5044889;28;20047;-77
2020/12/18 07:34:06;;;;;;;16.35;10.57;;;;;;;;;;5044902;28;20119;-76
2020/12/18 07:36:52;;;;;;;16.15;11.35;;;;;;;;;;5046248;28;20029;-77
2020/12/18 07:39:37;;;;;;;15.68;9.80;;;;;;;;;;5043111;28;20520;-77
2020/12/18 07:42:22;;;;;;;15.48;10.45;;;;;;;;;;5044411;28;20451;-77
2020/12/18 07:45:08;;;;;;;16.75;10.85;;;;;;;;;;5041277;28;20036;-78
2020/12/18 07:47:53;;;;;;;18.02;11.77;;;;;;;;;;5049688;28;20044;-75
2020/12/18 07:50:39;;;;;;;22.27;13.07;;;;;;;;;;5045910;28;20123;-78
2020/12/18 07:53:25;;;;;;;18.30;11.73;;;;;;;;;;5044699;28;20059;-77
2020/12/18 07:56:20;;;;;;;40.92;12.88;;;;;;;;;;5042399;28;20033;-77
2020/12/18 07:59:08;;;;;;;18.33;11.50;;;;;;;;;;5047168;28;20054;-79
2020/12/18 08:01:54;;;;;;;20.23;12.60;;;;;;;;;;5042272;28;20514;-79
2020/12/18 08:04:39;;;;;;;18.40;11.68;;;;;;;;;;5044534;28;20383;-78
2020/12/18 08:07:25;;;;;;;17.48;12.05;;;;;;;;;;5039864;28;20505;-79
2020/12/18 08:10:12;;;;;;;33.63;12.50;;;;;;;;;;5049248;28;20097;-78
2020/12/18 08:12:58;;;;;;;21.73;13.07;;;;;;;;;;5050224;28;20132;-78
2020/12/18 08:15:43;;;;;;;20.52;12.68;;;;;;;;;;5047728;28;20012;-77
2020/12/18 08:18:28;;;;;;;16.75;11.70;;;;;;;;;;5047004;28;20030;-77
2020/12/18 08:21:13;;;;;;;16.10;12.32;;;;;;;;;;5040257;28;20043;-76
2020/12/18 08:24:24;;;;;;;21.02;13.40;;;;;;;;;;5043691;28;20047;-76
2020/12/18 08:27:17;;;;;;;77.47;57.10;;;;;;;;;;5043856;28;20065;-76
2020/12/18 08:30:03;;;;;;;38.13;23.83;;;;;;;;;;5047758;28;20036;-77
2020/12/18 08:32:52;;;;;;;23.63;13.63;;;;;;;;;;5044820;28;20020;-78
2020/12/18 08:35:37;;;;;;;16.13;11.07;;;;;;;;;;5046728;28;20029;-80
2020/12/18 08:38:23;;;;;;;15.45;11.82;;;;;;;;;;5043865;28;20028;-77
2020/12/18 08:41:08;;;;;;;17.30;12.55;;;;;;;;;;5044250;28;20050;-77
2020/12/18 08:44:03;;;;;;;17.70;12.30;;;;;;;;;;5040362;28;20031;-79
2020/12/18 08:46:49;;;;;;;17.42;10.52;;;;;;;;;;5044618;28;20090;-77
2020/12/18 08:49:35;;;;;;;18.85;11.32;;;;;;;;;;5040871;28;20036;-77
2020/12/18 08:52:25;;;;;;;21.63;14.85;;;;;;;;;;5035598;28;20017;-77
2020/12/18 08:55:12;;;;;;;22.48;12.48;;;;;;;;;;5042768;28;20079;-76
2020/12/18 08:58:04;;;;;;;21.17;12.43;;;;;;;;;;5057195;28;20031;-77
2020/12/18 09:00:49;;;;;;;19.70;13.65;;;;;;;;;;5045293;28;20803;-77
2020/12/18 09:03:40;;;;;;;18.20;12.25;;;;;;;;;;5045378;28;20060;-76
2020/12/18 09:06:27;;;;;;;19.73;12.10;;;;;;;;;;5043229;28;20049;-77
2020/12/18 09:09:12;;;;;;;19.10;11.07;;;;;;;;;;5038873;28;20029;-77
2020/12/18 09:12:13;;;;;;;18.90;12.73;;;;;;;;;;5049495;28;20102;-77
2020/12/18 09:15:16;;;;;;;19.73;12.18;;;;;;;;;;5046269;28;20029;-77
2020/12/18 09:18:09;;;;;;;24.77;11.98;;;;;;;;;;5046023;28;20016;-77
2020/12/18 09:20:54;;;;;;;19.70;11.98;;;;;;;;;;5045918;28;20039;-78
2020/12/18 09:23:40;;;;;;;19.63;11.50;;;;;;;;;;5034729;28;20020;-79
2020/12/18 09:26:28;;;;;;;22.77;12.88;;;;;;;;;;5046486;28;20111;-77
2020/12/18 09:29:16;;;;;;;21.80;11.95;;;;;;;;;;5049121;28;20078;-78
2020/12/18 09:32:02;;;;;;;21.80;12.60;;;;;;;;;;5052648;28;20066;-77
2020/12/18 09:34:47;;;;;;;21.55;12.65;;;;;;;;;;5045023;28;20028;-77
2020/12/18 09:37:33;;;;;;;24.00;11.88;;;;;;;;;;5044178;28;20032;-77
2020/12/18 09:40:18;;;;;;;18.23;11.18;;;;;;;;;;5047123;28;20036;-78
2020/12/18 09:43:03;;;;;;;38.55;26.52;;;;;;;;;;5046293;28;20083;-80
2020/12/18 09:45:51;;;;;;;78.38;57.70;;;;;;;;;;5047911;28;20543;-77
2020/12/18 09:48:41;;;;;;;24.58;13.75;;;;;;;;;;5043920;28;20539;-77
2020/12/18 09:51:26;;;;;;;27.00;13.45;;;;;;;;;;5043389;28;20060;-77
2020/12/18 09:54:11;;;;;;;20.42;11.80;;;;;;;;;;5049956;28;20390;-77
2020/12/18 09:56:56;;;;;;;24.27;12.82;;;;;;;;;;5047894;28;20029;-77
2020/12/18 09:59:42;;;;;;;17.42;11.50;;;;;;;;;;5041972;28;20097;-79
2020/12/18 10:02:27;;;;;;;30.67;14.05;;;;;;;;;;5048216;28;20102;-79
2020/12/18 10:05:13;;;;;;;22.75;14.25;;;;;;;;;;5050081;28;20507;-78
2020/12/18 10:07:58;;;;;;;22.23;12.93;;;;;;;;;;5047386;28;20043;-77
2020/12/18 10:10:43;;;;;;;18.35;12.73;;;;;;;;;;5043608;28;20036;-77
2020/12/18 10:13:28;;;;;;;23.38;12.70;;;;;;;;;;5047912;28;20067;-78
2020/12/18 10:16:14;;;;;;;27.77;15.07;;;;;;;;;;5046556;28;20082;-77
2020/12/18 10:18:59;;;;;;;20.55;14.75;;;;;;;;;;5051970;28;20082;-76
2020/12/18 10:21:44;;;;;;;26.25;14.05;;;;;;;;;;5045608;28;20523;-76
2020/12/18 10:24:29;;;;;;;19.77;12.77;;;;;;;;;;5050514;28;20102;-78
2020/12/18 10:27:15;;;;;;;20.75;13.50;;;;;;;;;;5045965;28;20062;-77
2020/12/18 10:30:01;;;;;;;20.63;12.20;;;;;;;;;;5050571;28;20390;-77
2020/12/18 10:32:46;;;;;;;17.60;11.32;;;;;;;;;;5051572;28;20024;-78
2020/12/18 10:35:31;;;;;;;21.65;13.57;;;;;;;;;;5036150;28;20029;-78
2020/12/18 10:38:17;;;;;;;17.48;11.48;;;;;;;;;;5047355;28;20059;-77
2020/12/18 10:41:02;;;;;;;19.15;13.02;;;;;;;;;;5043932;28;20081;-77
2020/12/18 10:43:47;;;;;;;24.23;13.15;;;;;;;;;;5051151;28;20569;-76
2020/12/18 10:46:33;;;;;;;19.25;13.13;;;;;;;;;;5059588;28;20020;-75
2020/12/18 10:49:19;;;;;;;18.52;12.13;;;;;;;;;;5050661;28;20024;-76
2020/12/18 10:52:05;;;;;;;21.95;14.35;;;;;;;;;;5051034;28;20064;-76
2020/12/18 10:54:52;;;;;;;22.30;13.60;;;;;;;;;;5045165;28;20027;-75
2020/12/18 10:57:37;;;;;;;17.45;13.10;;;;;;;;;;5039181;28;20100;-76
2020/12/18 11:00:22;;;;;;;26.52;12.93;;;;;;;;;;5055012;28;20039;-77
2020/12/18 11:03:08;;;;;;;16.30;10.50;;;;;;;;;;5048299;28;20391;-75
2020/12/18 11:05:53;;;;;;;16.63;11.90;;;;;;;;;;5051933;28;20063;-76
2020/12/18 11:08:38;;;;;;;24.58;17.10;;;;;;;;;;5046801;28;20032;-76
2020/12/18 11:11:24;;;;;;;20.88;14.10;;;;;;;;;;5045990;28;20039;-76
2020/12/18 11:14:09;;;;;;;19.25;14.45;;;;;;;;;;5045719;28;20032;-76
2020/12/18 11:16:55;;;;;;;19.90;12.20;;;;;;;;;;5051867;28;20025;-76
2020/12/18 11:19:40;;;;;;;19.55;12.73;;;;;;;;;;5043419;28;20036;-77
2020/12/18 11:22:26;;;;;;;18.13;13.02;;;;;;;;;;5047712;28;20036;-77
2020/12/18 11:25:11;;;;;;;21.15;11.95;;;;;;;;;;5046447;28;20108;-82
2020/12/18 11:27:56;;;;;;;15.80;11.52;;;;;;;;;;5049121;28;20065;-82
2020/12/18 11:30:41;;;;;;;15.35;11.10;;;;;;;;;;5048982;28;20021;-78
2020/12/18 11:33:27;;;;;;;16.73;10.95;;;;;;;;;;5040193;28;20025;-78
2020/12/18 11:36:12;;;;;;;17.35;11.45;;;;;;;;;;5045730;28;20074;-79
2020/12/18 11:38:57;;;;;;;16.48;10.38;;;;;;;;;;5043274;28;20032;-81
2020/12/18 11:41:45;;;;;;;19.00;10.55;;;;;;;;;;5044733;28;20048;-79
2020/12/18 11:44:31;;;;;;;16.20;11.02;;;;;;;;;;5043877;28;20112;-79
2020/12/18 11:47:16;;;;;;;14.07;10.15;;;;;;;;;;5051442;28;20024;-79
2020/12/18 11:50:01;;;;;;;14.35;10.00;;;;;;;;;;5047907;28;20501;-80
2020/12/18 11:52:47;;;;;;;18.80;8.43;;;;;;;;;;5033052;28;20024;-76
2020/12/18 11:55:34;;;;;;;16.52;10.38;;;;;;;;;;5042572;28;20028;-78
2020/12/18 11:58:19;;;;;;;18.25;12.18;;;;;;;;;;5040196;28;20054;-77
2020/12/18 12:01:04;;;;;;;20.95;14.70;;;;;;;;;;5041838;28;20463;-77
2020/12/18 12:03:50;;;;;;;14.90;9.35;;;;;;;;;;5049516;28;20053;-77
2020/12/18 12:06:35;;;;;;;16.42;8.95;;;;;;;;;;5046398;28;20024;-77
2020/12/18 12:09:21;;;;;;;17.42;8.52;;;;;;;;;;5049500;28;20029;-77
2020/12/18 12:12:11;;;;;;;11.35;8.10;;;;;;;;;;5046865;28;20024;-78
2020/12/18 12:14:56;;;;;;;15.00;8.90;;;;;;;;;;5038909;28;20033;-77
2020/12/18 12:17:41;;;;;;;12.68;7.05;;;;;;;;;;5046338;28;20172;-78
2020/12/18 12:20:26;;;;;;;17.17;9.15;;;;;;;;;;5043585;28;20037;-76
2020/12/18 12:23:11;;;;;;;14.35;8.85;;;;;;;;;;5049055;28;20117;-77
2020/12/18 12:25:57;;;;;;;10.95;7.60;;;;;;;;;;5035853;28;20074;-78
2020/12/18 12:28:42;;;;;;;16.00;8.80;;;;;;;;;;5045983;28;20192;-77
2020/12/18 12:31:27;;;;;;;14.88;8.85;;;;;;;;;;5041404;28;20094;-77
2020/12/18 12:34:12;;;;;;;15.60;8.40;;;;;;;;;;5047814;28;20073;-77
2020/12/18 12:36:58;;;;;;;12.70;9.10;;;;;;;;;;5039616;28;20025;-77
2020/12/18 12:39:43;;;;;;;17.02;9.75;;;;;;;;;;5051812;28;20029;-77
2020/12/18 12:42:28;;;;;;;17.00;9.68;;;;;;;;;;5038426;28;20036;-77
2020/12/18 12:45:14;;;;;;;14.30;9.13;;;;;;;;;;5049048;28;20384;-76
2020/12/18 12:47:59;;;;;;;15.80;9.30;;;;;;;;;;5050111;28;20103;-77
2020/12/18 12:50:44;;;;;;;14.43;8.32;;;;;;;;;;5047286;28;20149;-77
2020/12/18 12:53:29;;;;;;;15.88;7.78;;;;;;;;;;5041152;28;20442;-77
2020/12/18 12:56:16;;;;;;;13.02;7.97;;;;;;;;;;5046354;28;20465;-76
2020/12/18 12:59:01;;;;;;;16.02;9.40;;;;;;;;;;5046109;28;20467;-76
2020/12/18 13:01:47;;;;;;;15.20;8.55;;;;;;;;;;5041063;28;20039;-76
2020/12/18 13:04:32;;;;;;;11.45;8.45;;;;;;;;;;5045987;28;20090;-77
2020/12/18 13:07:17;;;;;;;15.88;8.50;;;;;;;;;;5036869;28;20021;-77
2020/12/18 13:10:03;;;;;;;15.98;8.65;;;;;;;;;;5044539;28;20029;-76
2020/12/18 13:12:48;;;;;;;13.32;8.05;;;;;;;;;;5048470;28;20120;-76
2020/12/18 13:15:33;;;;;;;13.85;8.88;;;;;;;;;;5044643;28;20033;-77
2020/12/18 13:18:19;;;;;;;10.27;7.53;;;;;;;;;;5040930;28;20020;-78
2020/12/18 13:21:04;;;;;;;21.05;9.48;;;;;;;;;;5048970;28;20428;-76
2020/12/18 13:23:49;;;;;;;18.08;9.63;;;;;;;;;;5042892;28;20104;-76
2020/12/18 13:26:34;;;;;;;13.50;8.25;;;;;;;;;;5039137;28;20025;-76
2020/12/18 13:29:20;;;;;;;11.32;7.93;;;;;;;;;;5042858;28;20073;-76
2020/12/18 13:32:05;;;;;;;14.85;9.10;;;;;;;;;;5045941;28;20037;-77
2020/12/18 13:34:50;;;;;;;15.20;8.20;;;;;;;;;;5039788;28;20063;-77
2020/12/18 13:37:36;;;;;;;13.63;8.32;;;;;;;;;;5045280;28;20020;-76
2020/12/18 13:40:21;;;;;;;14.95;8.05;;;;;;;;;;5042804;28;20471;-76
2020/12/18 13:43:07;;;;;;;14.95;8.05;;;;;;;;;;5045622;28;20752;-77
2020/12/18 13:45:54;;;;;;;14.45;8.60;;;;;;;;;;5041894;28;20051;-78
2020/12/18 13:48:39;;;;;;;13.02;8.65;;;;;;;;;;5031383;28;20033;-78
2020/12/18 13:51:25;;;;;;;29.13;16.90;;;;;;;;;;5041555;28;20111;-76
2020/12/18 13:54:10;;;;;;;17.60;11.05;;;;;;;;;;5038683;28;20568;-77
2020/12/18 13:56:55;;;;;;;16.67;9.65;;;;;;;;;;5044678;28;20445;-77
2020/12/18 13:59:41;;;;;;;15.95;9.80;;;;;;;;;;5039490;28;20078;-76
2020/12/18 14:02:26;;;;;;;14.57;9.43;;;;;;;;;;5043954;28;20028;-77
2020/12/18 14:05:12;;;;;;;13.65;9.60;;;;;;;;;;5045611;28;20041;-77
2020/12/18 14:07:57;;;;;;;14.38;8.90;;;;;;;;;;5041289;28;20090;-76
2020/12/18 14:10:43;;;;;;;14.25;9.13;;;;;;;;;;5041955;28;20023;-76
2020/12/18 14:13:37;;;;;;;14.55;9.57;;;;;;;;;;5042429;28;20512;-77
2020/12/18 14:16:25;;;;;;;13.75;9.30;;;;;;;;;;5051073;28;20490;-77
2020/12/18 14:19:11;;;;;;;14.65;9.90;;;;;;;;;;5047290;28;20047;-78
2020/12/18 14:21:56;;;;;;;13.68;8.90;;;;;;;;;;5042382;28;20438;-76
2020/12/18 14:24:42;;;;;;;13.75;9.68;;;;;;;;;;5040099;28;20037;-77
2020/12/18 14:27:28;;;;;;;14.82;8.80;;;;;;;;;;5038989;28;20032;-77
2020/12/18 14:30:13;;;;;;;20.15;10.02;;;;;;;;;;5042542;28;20063;-75
2020/12/18 14:32:58;;;;;;;14.30;10.05;;;;;;;;;;5046870;28;20111;-78
2020/12/18 14:35:44;;;;;;;17.27;10.02;;;;;;;;;;5045368;28;20040;-77
2020/12/18 14:38:29;;;;;;;14.85;9.38;;;;;;;;;;5051361;28;20540;-77
2020/12/18 14:41:14;;;;;;;17.20;10.65;;;;;;;;;;5033124;28;20487;-79
2020/12/18 14:43:59;;;;;;;14.32;9.60;;;;;;;;;;5052432;28;20499;-78
2020/12/18 14:46:45;;;;;;;16.48;9.48;;;;;;;;;;5027996;28;20035;-79
2020/12/18 14:49:30;;;;;;;14.00;9.65;;;;;;;;;;5049790;28;20060;-80
2020/12/18 14:52:15;;;;;;;16.70;9.77;;;;;;;;;;5043953;28;20044;-79
2020/12/18 14:55:03;;;;;;;14.20;10.88;;;;;;;;;;5050586;28;20095;-79
2020/12/18 14:57:49;;;;;;;13.48;8.52;;;;;;;;;;5045161;28;20044;-80
2020/12/18 15:00:34;;;;;;;12.95;9.15;;;;;;;;;;5045852;28;20043;-81
2020/12/18 15:03:19;;;;;;;15.52;9.70;;;;;;;;;;5045599;28;20379;-80
2020/12/18 15:06:04;;;;;;;17.40;10.25;;;;;;;;;;5049451;28;20175;-81
2020/12/18 15:08:53;;;;;;;17.15;10.70;;;;;;;;;;5047213;28;20028;-81
2020/12/18 15:11:38;;;;;;;18.73;11.43;;;;;;;;;;5046467;28;20078;-81
2020/12/18 15:14:23;;;;;;;23.27;14.55;;;;;;;;;;5046446;28;20467;-79
2020/12/18 15:17:08;;;;;;;18.33;11.55;;;;;;;;;;5046988;28;20033;-81
2020/12/18 15:19:54;;;;;;;17.50;11.43;;;;;;;;;;5053948;28;20510;-80
2020/12/18 15:22:41;;;;;;;17.17;11.02;;;;;;;;;;5045109;28;20020;-80
2020/12/18 15:25:26;;;;;;;14.38;10.18;;;;;;;;;;5047812;28;20460;-79
2020/12/18 15:28:12;;;;;;;19.83;11.75;;;;;;;;;;5041944;28;20056;-80
2020/12/18 15:31:00;;;;;;;13.50;9.60;;;;;;;;;;5048347;28;20020;-83
2020/12/18 15:33:45;;;;;;;19.92;13.00;;;;;;;;;;5047781;28;20051;-81
2020/12/18 15:36:31;;;;;;;15.60;10.10;;;;;;;;;;5044110;28;20107;-79
2020/12/18 15:39:16;;;;;;;15.55;9.82;;;;;;;;;;5043112;28;20497;-78
2020/12/18 15:42:01;;;;;;;23.65;17.88;;;;;;;;;;5046812;28;20035;-80
2020/12/18 15:44:46;;;;;;;23.83;16.45;;;;;;;;;;5043513;28;20028;-78
2020/12/18 15:47:32;;;;;;;19.40;13.90;;;;;;;;;;5036944;28;20199;-77
2020/12/18 15:50:17;;;;;;;15.90;12.43;;;;;;;;;;5030561;28;20024;-77
2020/12/18 15:53:03;;;;;;;16.95;11.15;;;;;;;;;;5038312;28;20017;-77
2020/12/18 15:55:48;;;;;;;19.70;10.95;;;;;;;;;;5049650;28;20409;-78
2020/12/18 15:58:33;;;;;;;20.00;11.98;;;;;;;;;;5045632;28;20021;-78
2020/12/18 16:01:19;;;;;;;15.93;10.38;;;;;;;;;;5048895;28;20040;-78
2020/12/18 16:04:04;;;;;;;17.48;11.60;;;;;;;;;;5036775;28;20044;-77
2020/12/18 16:06:49;;;;;;;16.17;10.95;;;;;;;;;;5048256;28;20091;-77
2020/12/18 16:09:35;;;;;;;21.08;11.68;;;;;;;;;;5032475;28;20021;-77
2020/12/18 16:12:20;;;;;;;16.10;11.38;;;;;;;;;;5043217;28;20063;-78
2020/12/18 16:15:05;;;;;;;21.73;12.30;;;;;;;;;;5044928;28;20036;-78